sensor_id;sensor_type;location;lat;lon;timestamp;temperature;humidity
22838;DHT22;11585;51.450;-0.240;2023-08-31T00:04:00;17.50;99.90
22838;DHT22;11585;51.450;-0.240;2023-08-31T00:06:26;17.50;99.90
22838;DHT22;11585;51.450;-0.240;2023-08-31T00:08:51;17.50;99.90
22838;DHT22;11585;51.450;-0.240;2023-08-31T00:11:17;17.40;99.90
22838;DHT22;11585;51.450;-0.240;2023-08-31T00:13:42;17.40;99.90
22838;DHT22;11585;51.450;-0.240;2023-08-31T00:16:08;17.40;99.90
22838;DHT22;11585;51.450;-0.240;2023-08-31T00:18:35;17.40;99.90
22838;DHT22;11585;51.450;-0.240;2023-08-31T00:21:01;17.30;99.90
22838;DHT22;11585;51.450;-0.240;2023-08-31T00:26:12;17.30;99.90
22838;DHT22;11585;51.450;-0.240;2023-08-31T00:28:37;17.30;99.90
22838;DHT22;11585;51.450;-0.240;2023-08-31T00:31:04;17.30;99.90
22838;DHT22;11585;51.450;-0.240;2023-08-31T00:33:30;17.30;99.90
22838;DHT22;11585;51.450;-0.240;2023-08-31T00:35:58;17.30;99.90
22838;DHT22;11585;51.450;-0.240;2023-08-31T00:38:26;17.30;99.90
22838;DHT22;11585;51.450;-0.240;2023-08-31T00:40:52;17.20;99.90
22838;DHT22;11585;51.450;-0.240;2023-08-31T00:46:03;17.20;99.90
22838;DHT22;11585;51.450;-0.240;2023-08-31T00:48:29;17.20;99.90
22838;DHT22;11585;51.450;-0.240;2023-08-31T00:50:55;17.20;99.90
22838;DHT22;11585;51.450;-0.240;2023-08-31T00:56:23;17.10;99.90
22838;DHT22;11585;51.450;-0.240;2023-08-31T01:01:56;17.10;99.90
22838;DHT22;11585;51.450;-0.240;2023-08-31T01:07:21;17.10;99.90
22838;DHT22;11585;51.450;-0.240;2023-08-31T01:12:23;17.00;99.90
22838;DHT22;11585;51.450;-0.240;2023-08-31T01:14:56;17.00;99.90
22838;DHT22;11585;51.450;-0.240;2023-08-31T01:17:24;17.00;99.90
22838;DHT22;11585;51.450;-0.240;2023-08-31T01:19:52;17.00;99.90
22838;DHT22;11585;51.450;-0.240;2023-08-31T01:25:05;16.90;99.90
22838;DHT22;11585;51.450;-0.240;2023-08-31T01:27:34;16.90;99.90
22838;DHT22;11585;51.450;-0.240;2023-08-31T01:30:00;16.90;99.90
22838;DHT22;11585;51.450;-0.240;2023-08-31T01:35:14;16.90;99.90
22838;DHT22;11585;51.450;-0.240;2023-08-31T01:37:50;16.90;99.90
22838;DHT22;11585;51.450;-0.240;2023-08-31T01:40:18;16.90;99.90
22838;DHT22;11585;51.450;-0.240;2023-08-31T01:42:44;16.80;99.90
22838;DHT22;11585;51.450;-0.240;2023-08-31T01:45:11;16.80;99.90
22838;DHT22;11585;51.450;-0.240;2023-08-31T01:47:39;16.80;99.90
22838;DHT22;11585;51.450;-0.240;2023-08-31T01:50:05;16.80;99.90
22838;DHT22;11585;51.450;-0.240;2023-08-31T01:52:31;16.80;99.90
22838;DHT22;11585;51.450;-0.240;2023-08-31T01:54:57;16.80;99.90
22838;DHT22;11585;51.450;-0.240;2023-08-31T01:57:23;16.80;99.90
22838;DHT22;11585;51.450;-0.240;2023-08-31T01:59:48;16.80;99.90
22838;DHT22;11585;51.450;-0.240;2023-08-31T02:02:14;16.70;99.90
22838;DHT22;11585;51.450;-0.240;2023-08-31T02:04:39;16.70;99.90
22838;DHT22;11585;51.450;-0.240;2023-08-31T02:07:05;16.70;99.90
22838;DHT22;11585;51.450;-0.240;2023-08-31T02:09:30;16.70;99.90
22838;DHT22;11585;51.450;-0.240;2023-08-31T02:14:45;16.70;99.90
22838;DHT22;11585;51.450;-0.240;2023-08-31T02:17:11;16.70;99.90
22838;DHT22;11585;51.450;-0.240;2023-08-31T02:19:36;16.70;99.90
22838;DHT22;11585;51.450;-0.240;2023-08-31T02:24:47;16.60;99.90
22838;DHT22;11585;51.450;-0.240;2023-08-31T02:27:13;16.60;99.90
22838;DHT22;11585;51.450;-0.240;2023-08-31T02:29:38;16.60;99.90
22838;DHT22;11585;51.450;-0.240;2023-08-31T02:32:05;16.60;99.90
22838;DHT22;11585;51.450;-0.240;2023-08-31T02:34:30;16.60;99.90
22838;DHT22;11585;51.450;-0.240;2023-08-31T02:36:56;16.60;99.90
22838;DHT22;11585;51.450;-0.240;2023-08-31T02:39:23;16.50;99.90
22838;DHT22;11585;51.450;-0.240;2023-08-31T02:41:50;16.50;99.90
22838;DHT22;11585;51.450;-0.240;2023-08-31T02:44:16;16.50;99.90
22838;DHT22;11585;51.450;-0.240;2023-08-31T02:46:41;16.50;99.90
22838;DHT22;11585;51.450;-0.240;2023-08-31T02:49:07;16.50;99.90
22838;DHT22;11585;51.450;-0.240;2023-08-31T02:54:35;16.50;99.90
22838;DHT22;11585;51.450;-0.240;2023-08-31T03:00:04;16.50;99.90
22838;DHT22;11585;51.450;-0.240;2023-08-31T03:05:37;16.40;99.90
22838;DHT22;11585;51.450;-0.240;2023-08-31T03:08:02;16.40;99.90
22838;DHT22;11585;51.450;-0.240;2023-08-31T03:10:28;16.40;99.90
22838;DHT22;11585;51.450;-0.240;2023-08-31T03:15:56;16.40;99.90
22838;DHT22;11585;51.450;-0.240;2023-08-31T03:18:22;16.40;99.90
22838;DHT22;11585;51.450;-0.240;2023-08-31T03:20:48;16.40;99.90
22838;DHT22;11585;51.450;-0.240;2023-08-31T03:26:16;16.30;99.90
22838;DHT22;11585;51.450;-0.240;2023-08-31T03:28:43;16.30;99.90
22838;DHT22;11585;51.450;-0.240;2023-08-31T03:31:09;16.30;99.90
22838;DHT22;11585;51.450;-0.240;2023-08-31T03:33:34;16.30;99.90
22838;DHT22;11585;51.450;-0.240;2023-08-31T03:36:00;16.30;99.90
22838;DHT22;11585;51.450;-0.240;2023-08-31T03:38:26;16.30;99.90
22838;DHT22;11585;51.450;-0.240;2023-08-31T03:40:55;16.30;99.90
22838;DHT22;11585;51.450;-0.240;2023-08-31T03:46:05;16.20;99.90
22838;DHT22;11585;51.450;-0.240;2023-08-31T03:48:30;16.20;99.90
22838;DHT22;11585;51.450;-0.240;2023-08-31T03:50:56;16.30;99.90
22838;DHT22;11585;51.450;-0.240;2023-08-31T03:56:24;16.20;99.90
22838;DHT22;11585;51.450;-0.240;2023-08-31T03:58:50;16.20;99.90
22838;DHT22;11585;51.450;-0.240;2023-08-31T04:04:01;16.20;99.90
22838;DHT22;11585;51.450;-0.240;2023-08-31T04:06:27;16.20;99.90
22838;DHT22;11585;51.450;-0.240;2023-08-31T04:08:54;16.20;99.90
22838;DHT22;11585;51.450;-0.240;2023-08-31T04:11:19;16.20;99.90
22838;DHT22;11585;51.450;-0.240;2023-08-31T04:13:45;16.10;99.90
22838;DHT22;11585;51.450;-0.240;2023-08-31T04:16:10;16.10;99.90
22838;DHT22;11585;51.450;-0.240;2023-08-31T04:18:36;16.10;99.90
22838;DHT22;11585;51.450;-0.240;2023-08-31T04:21:01;16.10;99.90
22838;DHT22;11585;51.450;-0.240;2023-08-31T04:25:57;16.10;99.90
22838;DHT22;11585;51.450;-0.240;2023-08-31T04:28:23;16.10;99.90
22838;DHT22;11585;51.450;-0.240;2023-08-31T04:30:49;16.10;99.90
22838;DHT22;11585;51.450;-0.240;2023-08-31T04:36:00;16.10;99.90
22838;DHT22;11585;51.450;-0.240;2023-08-31T04:38:26;16.10;99.90
22838;DHT22;11585;51.450;-0.240;2023-08-31T04:40:51;16.10;99.90
22838;DHT22;11585;51.450;-0.240;2023-08-31T04:43:19;16.10;99.90
22838;DHT22;11585;51.450;-0.240;2023-08-31T04:45:44;16.00;99.90
22838;DHT22;11585;51.450;-0.240;2023-08-31T04:48:10;16.10;99.90
22838;DHT22;11585;51.450;-0.240;2023-08-31T04:50:35;16.00;99.90
22838;DHT22;11585;51.450;-0.240;2023-08-31T04:56:04;16.00;99.90
22838;DHT22;11585;51.450;-0.240;2023-08-31T04:58:29;16.00;99.90
22838;DHT22;11585;51.450;-0.240;2023-08-31T05:00:55;16.00;99.90
22838;DHT22;11585;51.450;-0.240;2023-08-31T05:09:27;16.00;99.90
22838;DHT22;11585;51.450;-0.240;2023-08-31T05:14:28;16.00;99.90
22838;DHT22;11585;51.450;-0.240;2023-08-31T05:16:54;16.00;99.90
22838;DHT22;11585;51.450;-0.240;2023-08-31T05:19:19;15.90;99.90
22838;DHT22;11585;51.450;-0.240;2023-08-31T05:24:29;16.00;99.90
22838;DHT22;11585;51.450;-0.240;2023-08-31T05:26:55;15.90;99.90
22838;DHT22;11585;51.450;-0.240;2023-08-31T05:29:20;15.90;99.90
22838;DHT22;11585;51.450;-0.240;2023-08-31T05:34:30;15.90;99.90
22838;DHT22;11585;51.450;-0.240;2023-08-31T05:36:58;15.90;99.90
22838;DHT22;11585;51.450;-0.240;2023-08-31T05:39:23;15.90;99.90
22838;DHT22;11585;51.450;-0.240;2023-08-31T05:44:35;15.90;99.90
22838;DHT22;11585;51.450;-0.240;2023-08-31T05:47:00;15.90;99.90
22838;DHT22;11585;51.450;-0.240;2023-08-31T05:49:26;15.90;99.90
22838;DHT22;11585;51.450;-0.240;2023-08-31T05:57:58;15.90;99.90
22838;DHT22;11585;51.450;-0.240;2023-08-31T06:00:23;15.90;99.90
22838;DHT22;11585;51.450;-0.240;2023-08-31T06:05:38;15.90;99.90
22838;DHT22;11585;51.450;-0.240;2023-08-31T06:08:04;15.90;99.90
22838;DHT22;11585;51.450;-0.240;2023-08-31T06:10:29;15.90;99.90
22838;DHT22;11585;51.450;-0.240;2023-08-31T06:12:56;15.90;99.90
22838;DHT22;11585;51.450;-0.240;2023-08-31T06:15:21;15.90;99.90
22838;DHT22;11585;51.450;-0.240;2023-08-31T06:17:47;15.90;99.90
22838;DHT22;11585;51.450;-0.240;2023-08-31T06:20:13;15.90;99.90
22838;DHT22;11585;51.450;-0.240;2023-08-31T06:22:38;15.90;99.90
22838;DHT22;11585;51.450;-0.240;2023-08-31T06:25:04;15.90;99.90
22838;DHT22;11585;51.450;-0.240;2023-08-31T06:27:30;15.90;99.90
22838;DHT22;11585;51.450;-0.240;2023-08-31T06:29:56;15.90;99.90
22838;DHT22;11585;51.450;-0.240;2023-08-31T06:32:23;15.90;99.90
22838;DHT22;11585;51.450;-0.240;2023-08-31T06:34:48;15.90;99.90
22838;DHT22;11585;51.450;-0.240;2023-08-31T06:37:14;15.90;99.90
22838;DHT22;11585;51.450;-0.240;2023-08-31T06:39:39;15.90;99.90
22838;DHT22;11585;51.450;-0.240;2023-08-31T06:42:06;15.90;99.90
22838;DHT22;11585;51.450;-0.240;2023-08-31T06:44:32;15.90;99.90
22838;DHT22;11585;51.450;-0.240;2023-08-31T06:46:57;15.90;99.90
22838;DHT22;11585;51.450;-0.240;2023-08-31T06:49:23;15.90;99.90
22838;DHT22;11585;51.450;-0.240;2023-08-31T06:51:49;15.90;99.90
22838;DHT22;11585;51.450;-0.240;2023-08-31T06:54:14;15.90;99.90
22838;DHT22;11585;51.450;-0.240;2023-08-31T06:56:40;15.90;99.90
22838;DHT22;11585;51.450;-0.240;2023-08-31T06:59:05;15.90;99.90
22838;DHT22;11585;51.450;-0.240;2023-08-31T07:01:32;15.90;99.90
22838;DHT22;11585;51.450;-0.240;2023-08-31T07:03:58;15.90;99.90
22838;DHT22;11585;51.450;-0.240;2023-08-31T07:06:23;15.90;99.90
22838;DHT22;11585;51.450;-0.240;2023-08-31T07:08:49;15.90;99.90
22838;DHT22;11585;51.450;-0.240;2023-08-31T07:14:18;15.90;99.90
22838;DHT22;11585;51.450;-0.240;2023-08-31T07:16:43;15.90;99.90
22838;DHT22;11585;51.450;-0.240;2023-08-31T07:19:09;15.90;99.90
22838;DHT22;11585;51.450;-0.240;2023-08-31T07:21:36;15.90;99.90
22838;DHT22;11585;51.450;-0.240;2023-08-31T07:24:01;15.90;99.90
22838;DHT22;11585;51.450;-0.240;2023-08-31T07:26:27;15.90;99.90
22838;DHT22;11585;51.450;-0.240;2023-08-31T07:28:55;15.90;99.90
22838;DHT22;11585;51.450;-0.240;2023-08-31T07:34:05;16.00;99.90
22838;DHT22;11585;51.450;-0.240;2023-08-31T07:36:31;15.90;99.90
22838;DHT22;11585;51.450;-0.240;2023-08-31T07:38:56;15.90;99.90
22838;DHT22;11585;51.450;-0.240;2023-08-31T07:44:11;16.00;99.90
22838;DHT22;11585;51.450;-0.240;2023-08-31T07:46:37;16.00;99.90
22838;DHT22;11585;51.450;-0.240;2023-08-31T07:49:02;16.00;99.90
22838;DHT22;11585;51.450;-0.240;2023-08-31T07:51:31;16.00;99.90
22838;DHT22;11585;51.450;-0.240;2023-08-31T07:53:56;16.00;99.90
22838;DHT22;11585;51.450;-0.240;2023-08-31T07:56:22;16.00;99.90
22838;DHT22;11585;51.450;-0.240;2023-08-31T07:58:49;16.10;99.90
22838;DHT22;11585;51.450;-0.240;2023-08-31T08:01:15;16.00;99.90
22838;DHT22;11585;51.450;-0.240;2023-08-31T08:03:40;16.00;99.90
22838;DHT22;11585;51.450;-0.240;2023-08-31T08:06:06;16.10;99.90
22838;DHT22;11585;51.450;-0.240;2023-08-31T08:08:34;16.10;99.90
22838;DHT22;11585;51.450;-0.240;2023-08-31T08:11:00;16.10;99.90
22838;DHT22;11585;51.450;-0.240;2023-08-31T08:13:25;16.10;99.90
22838;DHT22;11585;51.450;-0.240;2023-08-31T08:15:51;16.10;99.90
22838;DHT22;11585;51.450;-0.240;2023-08-31T08:18:16;16.10;99.90
22838;DHT22;11585;51.450;-0.240;2023-08-31T08:20:42;16.10;99.90
22838;DHT22;11585;51.450;-0.240;2023-08-31T08:23:08;16.10;99.90
22838;DHT22;11585;51.450;-0.240;2023-08-31T08:25:33;16.10;99.90
22838;DHT22;11585;51.450;-0.240;2023-08-31T08:27:59;16.20;99.90
22838;DHT22;11585;51.450;-0.240;2023-08-31T08:30:25;16.20;99.90
22838;DHT22;11585;51.450;-0.240;2023-08-31T08:35:37;16.20;99.90
22838;DHT22;11585;51.450;-0.240;2023-08-31T08:38:05;16.20;99.90
22838;DHT22;11585;51.450;-0.240;2023-08-31T08:40:31;16.20;99.90
22838;DHT22;11585;51.450;-0.240;2023-08-31T08:43:00;16.30;99.90
22838;DHT22;11585;51.450;-0.240;2023-08-31T08:45:25;16.30;99.90
22838;DHT22;11585;51.450;-0.240;2023-08-31T08:47:53;16.30;99.90
22838;DHT22;11585;51.450;-0.240;2023-08-31T08:50:19;16.30;99.90
22838;DHT22;11585;51.450;-0.240;2023-08-31T08:52:46;16.30;99.90
22838;DHT22;11585;51.450;-0.240;2023-08-31T08:55:12;16.30;99.90
22838;DHT22;11585;51.450;-0.240;2023-08-31T08:57:38;16.30;99.90
22838;DHT22;11585;51.450;-0.240;2023-08-31T09:00:04;16.40;99.90
22838;DHT22;11585;51.450;-0.240;2023-08-31T09:05:33;16.40;99.90
22838;DHT22;11585;51.450;-0.240;2023-08-31T09:08:06;16.40;99.90
22838;DHT22;11585;51.450;-0.240;2023-08-31T09:10:39;16.40;99.90
22838;DHT22;11585;51.450;-0.240;2023-08-31T09:13:09;16.40;99.90
22838;DHT22;11585;51.450;-0.240;2023-08-31T09:20:44;16.50;99.90
22838;DHT22;11585;51.450;-0.240;2023-08-31T09:23:12;16.50;99.90
22838;DHT22;11585;51.450;-0.240;2023-08-31T09:25:44;16.50;99.90
22838;DHT22;11585;51.450;-0.240;2023-08-31T09:28:13;16.50;99.90
22838;DHT22;11585;51.450;-0.240;2023-08-31T09:30:39;16.50;99.90
22838;DHT22;11585;51.450;-0.240;2023-08-31T09:33:06;16.50;99.90
22838;DHT22;11585;51.450;-0.240;2023-08-31T09:35:32;16.50;99.90
22838;DHT22;11585;51.450;-0.240;2023-08-31T09:37:58;16.50;99.90
22838;DHT22;11585;51.450;-0.240;2023-08-31T09:40:23;16.50;99.90
22838;DHT22;11585;51.450;-0.240;2023-08-31T09:45:35;16.50;99.90
22838;DHT22;11585;51.450;-0.240;2023-08-31T09:48:02;16.60;99.90
22838;DHT22;11585;51.450;-0.240;2023-08-31T09:50:33;16.90;99.90
22838;DHT22;11585;51.450;-0.240;2023-08-31T09:53:00;16.60;99.90
22838;DHT22;11585;51.450;-0.240;2023-08-31T09:55:27;16.60;99.90
22838;DHT22;11585;51.450;-0.240;2023-08-31T09:57:56;16.60;99.90
22838;DHT22;11585;51.450;-0.240;2023-08-31T10:00:24;16.60;99.90
22838;DHT22;11585;51.450;-0.240;2023-08-31T10:08:45;16.60;99.90
22838;DHT22;11585;51.450;-0.240;2023-08-31T10:11:10;16.60;99.90
22838;DHT22;11585;51.450;-0.240;2023-08-31T10:13:39;16.60;99.90
22838;DHT22;11585;51.450;-0.240;2023-08-31T10:16:06;16.60;99.90
22838;DHT22;11585;51.450;-0.240;2023-08-31T10:18:32;16.70;99.90
22838;DHT22;11585;51.450;-0.240;2023-08-31T10:20:59;16.70;99.90
22838;DHT22;11585;51.450;-0.240;2023-08-31T10:23:26;16.70;99.90
22838;DHT22;11585;51.450;-0.240;2023-08-31T10:28:19;16.70;99.90
22838;DHT22;11585;51.450;-0.240;2023-08-31T10:30:59;16.70;99.90
22838;DHT22;11585;51.450;-0.240;2023-08-31T10:33:27;16.70;99.90
22838;DHT22;11585;51.450;-0.240;2023-08-31T10:35:55;16.80;99.90
22838;DHT22;11585;51.450;-0.240;2023-08-31T10:43:42;16.80;99.90
22838;DHT22;11585;51.450;-0.240;2023-08-31T10:48:56;16.90;99.90
22838;DHT22;11585;51.450;-0.240;2023-08-31T10:54:09;16.90;99.90
22838;DHT22;11585;51.450;-0.240;2023-08-31T10:56:54;16.90;99.90
22838;DHT22;11585;51.450;-0.240;2023-08-31T10:59:20;16.90;99.90
22838;DHT22;11585;51.450;-0.240;2023-08-31T11:02:05;17.00;99.90
22838;DHT22;11585;51.450;-0.240;2023-08-31T11:04:38;17.00;99.90
22838;DHT22;11585;51.450;-0.240;2023-08-31T11:07:17;17.10;99.90
22838;DHT22;11585;51.450;-0.240;2023-08-31T11:09:44;17.10;99.90
22838;DHT22;11585;51.450;-0.240;2023-08-31T11:12:10;17.10;99.90
22838;DHT22;11585;51.450;-0.240;2023-08-31T11:14:35;17.20;99.90
22838;DHT22;11585;51.450;-0.240;2023-08-31T11:17:01;17.20;99.90
22838;DHT22;11585;51.450;-0.240;2023-08-31T11:19:30;17.20;99.90
22838;DHT22;11585;51.450;-0.240;2023-08-31T11:21:56;17.30;99.90
22838;DHT22;11585;51.450;-0.240;2023-08-31T11:24:22;17.30;99.90
22838;DHT22;11585;51.450;-0.240;2023-08-31T11:26:49;17.30;99.90
22838;DHT22;11585;51.450;-0.240;2023-08-31T11:29:15;17.40;99.90
22838;DHT22;11585;51.450;-0.240;2023-08-31T11:31:40;17.40;99.90
22838;DHT22;11585;51.450;-0.240;2023-08-31T11:34:06;17.40;99.90
22838;DHT22;11585;51.450;-0.240;2023-08-31T11:36:34;17.50;99.90
22838;DHT22;11585;51.450;-0.240;2023-08-31T11:39:01;17.50;99.90
22838;DHT22;11585;51.450;-0.240;2023-08-31T11:41:32;17.50;99.90
22838;DHT22;11585;51.450;-0.240;2023-08-31T11:44:00;17.50;99.90
22838;DHT22;11585;51.450;-0.240;2023-08-31T11:46:26;17.60;99.90
22838;DHT22;11585;51.450;-0.240;2023-08-31T11:48:52;17.60;99.90
22838;DHT22;11585;51.450;-0.240;2023-08-31T11:51:18;17.60;99.90
22838;DHT22;11585;51.450;-0.240;2023-08-31T11:53:44;17.60;99.90
22838;DHT22;11585;51.450;-0.240;2023-08-31T11:56:10;17.60;99.90
22838;DHT22;11585;51.450;-0.240;2023-08-31T11:58:41;17.70;99.90
22838;DHT22;11585;51.450;-0.240;2023-08-31T12:01:08;17.70;99.90
22838;DHT22;11585;51.450;-0.240;2023-08-31T12:03:43;17.70;99.90
22838;DHT22;11585;51.450;-0.240;2023-08-31T12:06:09;17.70;99.90
22838;DHT22;11585;51.450;-0.240;2023-08-31T12:08:36;17.70;99.90
22838;DHT22;11585;51.450;-0.240;2023-08-31T12:11:02;17.80;99.90
22838;DHT22;11585;51.450;-0.240;2023-08-31T12:13:28;17.70;99.90
22838;DHT22;11585;51.450;-0.240;2023-08-31T12:15:54;17.80;99.90
22838;DHT22;11585;51.450;-0.240;2023-08-31T12:18:20;17.80;99.90
22838;DHT22;11585;51.450;-0.240;2023-08-31T12:20:46;17.80;99.90
22838;DHT22;11585;51.450;-0.240;2023-08-31T12:23:14;17.80;99.90
22838;DHT22;11585;51.450;-0.240;2023-08-31T12:25:49;17.80;99.90
22838;DHT22;11585;51.450;-0.240;2023-08-31T12:28:16;17.80;99.90
22838;DHT22;11585;51.450;-0.240;2023-08-31T12:30:42;17.90;99.90
22838;DHT22;11585;51.450;-0.240;2023-08-31T12:33:08;17.90;99.90
22838;DHT22;11585;51.450;-0.240;2023-08-31T12:35:33;17.90;99.90
22838;DHT22;11585;51.450;-0.240;2023-08-31T12:37:59;17.90;99.90
22838;DHT22;11585;51.450;-0.240;2023-08-31T12:40:24;17.90;99.90
22838;DHT22;11585;51.450;-0.240;2023-08-31T12:42:51;17.90;99.90
22838;DHT22;11585;51.450;-0.240;2023-08-31T12:45:17;17.90;99.90
22838;DHT22;11585;51.450;-0.240;2023-08-31T12:47:42;17.90;99.90
22838;DHT22;11585;51.450;-0.240;2023-08-31T12:50:08;17.90;99.90
22838;DHT22;11585;51.450;-0.240;2023-08-31T12:52:34;18.00;99.90
22838;DHT22;11585;51.450;-0.240;2023-08-31T12:54:59;18.00;99.90
22838;DHT22;11585;51.450;-0.240;2023-08-31T12:57:25;18.00;99.90
22838;DHT22;11585;51.450;-0.240;2023-08-31T12:59:56;18.00;99.90
22838;DHT22;11585;51.450;-0.240;2023-08-31T13:02:23;18.00;99.90
22838;DHT22;11585;51.450;-0.240;2023-08-31T13:04:49;18.10;99.90
22838;DHT22;11585;51.450;-0.240;2023-08-31T13:07:14;18.10;99.90
22838;DHT22;11585;51.450;-0.240;2023-08-31T13:09:40;18.00;99.90
22838;DHT22;11585;51.450;-0.240;2023-08-31T13:12:05;18.10;99.90
22838;DHT22;11585;51.450;-0.240;2023-08-31T13:14:36;18.10;99.90
22838;DHT22;11585;51.450;-0.240;2023-08-31T13:17:02;18.10;99.90
22838;DHT22;11585;51.450;-0.240;2023-08-31T13:19:31;18.10;99.90
22838;DHT22;11585;51.450;-0.240;2023-08-31T13:24:41;18.10;99.90
22838;DHT22;11585;51.450;-0.240;2023-08-31T13:27:07;18.10;99.90
22838;DHT22;11585;51.450;-0.240;2023-08-31T13:29:32;18.10;99.90
22838;DHT22;11585;51.450;-0.240;2023-08-31T13:31:58;18.10;99.90
22838;DHT22;11585;51.450;-0.240;2023-08-31T13:34:24;18.10;99.90
22838;DHT22;11585;51.450;-0.240;2023-08-31T13:36:49;18.10;99.90
22838;DHT22;11585;51.450;-0.240;2023-08-31T13:39:15;18.20;99.90
22838;DHT22;11585;51.450;-0.240;2023-08-31T13:41:41;18.20;99.90
22838;DHT22;11585;51.450;-0.240;2023-08-31T13:44:07;18.20;99.90
22838;DHT22;11585;51.450;-0.240;2023-08-31T13:46:32;18.20;99.90
22838;DHT22;11585;51.450;-0.240;2023-08-31T13:48:58;18.20;99.90
22838;DHT22;11585;51.450;-0.240;2023-08-31T13:51:23;18.20;99.90
22838;DHT22;11585;51.450;-0.240;2023-08-31T13:53:49;18.20;99.90
22838;DHT22;11585;51.450;-0.240;2023-08-31T13:56:14;18.20;99.90
22838;DHT22;11585;51.450;-0.240;2023-08-31T13:58:40;18.20;99.90
22838;DHT22;11585;51.450;-0.240;2023-08-31T14:01:06;18.20;99.90
22838;DHT22;11585;51.450;-0.240;2023-08-31T14:03:31;18.20;99.90
22838;DHT22;11585;51.450;-0.240;2023-08-31T14:05:57;18.20;99.90
22838;DHT22;11585;51.450;-0.240;2023-08-31T14:08:22;18.20;99.90
22838;DHT22;11585;51.450;-0.240;2023-08-31T14:10:48;18.20;99.90
22838;DHT22;11585;51.450;-0.240;2023-08-31T14:13:15;18.20;99.90
22838;DHT22;11585;51.450;-0.240;2023-08-31T14:15:47;18.20;99.90
22838;DHT22;11585;51.450;-0.240;2023-08-31T14:18:13;18.20;99.90
22838;DHT22;11585;51.450;-0.240;2023-08-31T14:20:39;18.20;99.90
22838;DHT22;11585;51.450;-0.240;2023-08-31T14:23:05;18.20;99.90
22838;DHT22;11585;51.450;-0.240;2023-08-31T14:25:37;18.20;99.90
22838;DHT22;11585;51.450;-0.240;2023-08-31T14:28:05;18.20;99.90
22838;DHT22;11585;51.450;-0.240;2023-08-31T14:30:31;18.10;99.90
22838;DHT22;11585;51.450;-0.240;2023-08-31T14:32:58;18.20;99.90
22838;DHT22;11585;51.450;-0.240;2023-08-31T14:35:23;18.10;99.90
22838;DHT22;11585;51.450;-0.240;2023-08-31T14:37:49;18.20;99.90
22838;DHT22;11585;51.450;-0.240;2023-08-31T14:40:14;18.20;99.90
22838;DHT22;11585;51.450;-0.240;2023-08-31T14:42:41;18.20;99.90
22838;DHT22;11585;51.450;-0.240;2023-08-31T14:45:07;18.20;99.90
22838;DHT22;11585;51.450;-0.240;2023-08-31T14:47:32;18.20;99.90
22838;DHT22;11585;51.450;-0.240;2023-08-31T14:49:58;18.20;99.90
22838;DHT22;11585;51.450;-0.240;2023-08-31T14:52:23;18.10;99.90
22838;DHT22;11585;51.450;-0.240;2023-08-31T14:54:49;18.20;99.90
22838;DHT22;11585;51.450;-0.240;2023-08-31T14:57:14;18.20;99.90
22838;DHT22;11585;51.450;-0.240;2023-08-31T14:59:40;18.20;99.90
22838;DHT22;11585;51.450;-0.240;2023-08-31T15:02:08;18.10;99.90
22838;DHT22;11585;51.450;-0.240;2023-08-31T15:04:34;18.20;99.90
22838;DHT22;11585;51.450;-0.240;2023-08-31T15:06:59;18.20;99.90
22838;DHT22;11585;51.450;-0.240;2023-08-31T15:09:25;18.10;99.90
22838;DHT22;11585;51.450;-0.240;2023-08-31T15:11:53;18.20;99.90
22838;DHT22;11585;51.450;-0.240;2023-08-31T15:14:18;18.10;99.90
22838;DHT22;11585;51.450;-0.240;2023-08-31T15:16:44;18.20;99.90
22838;DHT22;11585;51.450;-0.240;2023-08-31T15:19:09;18.10;99.90
22838;DHT22;11585;51.450;-0.240;2023-08-31T15:21:35;18.10;99.90
22838;DHT22;11585;51.450;-0.240;2023-08-31T15:24:01;18.10;99.90
22838;DHT22;11585;51.450;-0.240;2023-08-31T15:26:30;18.10;99.90
22838;DHT22;11585;51.450;-0.240;2023-08-31T15:28:56;18.10;99.90
22838;DHT22;11585;51.450;-0.240;2023-08-31T15:31:25;18.10;99.90
22838;DHT22;11585;51.450;-0.240;2023-08-31T15:33:50;18.10;99.90
22838;DHT22;11585;51.450;-0.240;2023-08-31T15:36:18;18.10;99.90
22838;DHT22;11585;51.450;-0.240;2023-08-31T15:38:44;18.10;99.90
22838;DHT22;11585;51.450;-0.240;2023-08-31T15:41:12;18.10;99.90
22838;DHT22;11585;51.450;-0.240;2023-08-31T15:43:38;18.10;99.90
22838;DHT22;11585;51.450;-0.240;2023-08-31T15:46:04;18.10;99.90
22838;DHT22;11585;51.450;-0.240;2023-08-31T15:48:30;18.10;99.90
22838;DHT22;11585;51.450;-0.240;2023-08-31T15:50:56;18.10;99.90
22838;DHT22;11585;51.450;-0.240;2023-08-31T15:53:23;18.10;99.90
22838;DHT22;11585;51.450;-0.240;2023-08-31T15:55:49;18.10;99.90
22838;DHT22;11585;51.450;-0.240;2023-08-31T15:58:15;18.10;99.90
22838;DHT22;11585;51.450;-0.240;2023-08-31T16:00:41;18.10;99.90
22838;DHT22;11585;51.450;-0.240;2023-08-31T16:03:08;18.10;99.90
22838;DHT22;11585;51.450;-0.240;2023-08-31T16:05:34;18.10;99.90
22838;DHT22;11585;51.450;-0.240;2023-08-31T16:08:01;18.10;99.90
22838;DHT22;11585;51.450;-0.240;2023-08-31T16:10:26;18.10;99.90
22838;DHT22;11585;51.450;-0.240;2023-08-31T16:12:53;18.10;99.90
22838;DHT22;11585;51.450;-0.240;2023-08-31T16:15:18;18.00;99.90
22838;DHT22;11585;51.450;-0.240;2023-08-31T16:17:44;18.10;99.90
22838;DHT22;11585;51.450;-0.240;2023-08-31T16:20:10;18.10;99.90
22838;DHT22;11585;51.450;-0.240;2023-08-31T16:22:38;18.10;99.90
22838;DHT22;11585;51.450;-0.240;2023-08-31T16:25:04;18.10;99.90
22838;DHT22;11585;51.450;-0.240;2023-08-31T16:27:29;18.10;99.90
22838;DHT22;11585;51.450;-0.240;2023-08-31T16:29:55;18.10;99.90
22838;DHT22;11585;51.450;-0.240;2023-08-31T16:32:22;18.10;99.90
22838;DHT22;11585;51.450;-0.240;2023-08-31T16:34:51;18.10;99.90
22838;DHT22;11585;51.450;-0.240;2023-08-31T16:37:20;18.10;99.90
22838;DHT22;11585;51.450;-0.240;2023-08-31T16:39:46;18.10;99.90
22838;DHT22;11585;51.450;-0.240;2023-08-31T16:42:13;18.10;99.90
22838;DHT22;11585;51.450;-0.240;2023-08-31T16:44:41;18.10;99.90
22838;DHT22;11585;51.450;-0.240;2023-08-31T16:47:07;18.10;99.90
22838;DHT22;11585;51.450;-0.240;2023-08-31T16:49:32;18.00;99.90
22838;DHT22;11585;51.450;-0.240;2023-08-31T16:52:00;18.10;99.90
22838;DHT22;11585;51.450;-0.240;2023-08-31T16:54:26;18.00;99.90
22838;DHT22;11585;51.450;-0.240;2023-08-31T16:56:51;18.10;99.90
22838;DHT22;11585;51.450;-0.240;2023-08-31T16:59:20;18.00;99.90
22838;DHT22;11585;51.450;-0.240;2023-08-31T17:01:48;18.10;99.90
22838;DHT22;11585;51.450;-0.240;2023-08-31T17:04:13;18.10;99.90
22838;DHT22;11585;51.450;-0.240;2023-08-31T17:06:39;18.10;99.90
22838;DHT22;11585;51.450;-0.240;2023-08-31T17:09:05;18.10;99.90
22838;DHT22;11585;51.450;-0.240;2023-08-31T17:11:33;18.10;99.90
22838;DHT22;11585;51.450;-0.240;2023-08-31T17:14:01;18.10;99.90
22838;DHT22;11585;51.450;-0.240;2023-08-31T17:16:28;18.10;99.90
22838;DHT22;11585;51.450;-0.240;2023-08-31T17:18:54;18.10;99.90
22838;DHT22;11585;51.450;-0.240;2023-08-31T17:21:21;18.10;99.90
22838;DHT22;11585;51.450;-0.240;2023-08-31T17:23:47;18.10;99.90